HESH/SSH METAR and TAF weather

Enter ICAO airport designator
Station Type Date Time Source
HESH METAR 2023/02/05 14:00 UTC NOAA

HESH 051400Z 14009KT CAVOK 20/06 Q1012 NOSIG


Station Type Date Time Source
HESH Decoded METAR 2023/02/05 14:00 UTC NOAA

Sharm El Sheikhintl, Egypt (HESH) 27-58N 034-23E
Feb 05, 2023 - 09:00 AM EST / 2023.02.05 1400 UTC
Wind: from the SE (140 degrees) at 10 MPH (9 KT):0
Visibility: greater than 7 mile(s):0
Temperature: 68 F (20 C)
Dew Point: 42 F (6 C)
Relative Humidity: 39%
Pressure (altimeter): 29.88 in. Hg (1012 hPa)
ob: HESH 051400Z 14009KT CAVOK 20/06 Q1012 NOSIG
cycle: 14

Station Type Date Time Source
HESH TAF 2023/02/05 12:58 UTC NOAA

TAF HESH 051100Z 0512/0618 16010KT CAVOK
BECMG 0609/0611 240010G20KT

Example: see airport list